Impacts TAF Board
For situational awareness. Not to be used for flight planning purposes.
IDs:

KSTL - St Louis/Lambert Int, MO, US

Issued at 1741 UTC 19 May 2019
Updated at 2054 UTC 19 May 2019
Potential Impact None Slight Moderate High
Time<<20/09Z 20/10Z 20/11Z 20/12Z 20/13Z 20/14Z 20/15Z 20/16Z 20/17Z 20/18Z 20/19Z 20/20Z 20/21Z>>
Type PRVL PRVL PRVL PRVL PRVL PRVL PRVL PRVL PRVL PRVL PRVL PRVL PRVL
VIS >6 >6 >6 >6 >6 >6 >6 >6 >6 >6 >6 >6 >6
CIG -- -- -- -- -- -- -- -- -- -- -- -- --
Cover SKC SKC SKC SKC SKC SKC SKC SKC SKC SKC SKC SKC SCT
FltCat VFR VFR VFR VFR VFR VFR VFR VFR VFR VFR VFR VFR VFR
WX -- -- -- -- -- -- -- -- -- -- -- -- --
WDir 300 300 300 300 300 300 300 300 300 300 300 300 20
WSpd 6 6 6 6 6 6 6 6 6 6 6 6 8
WGst -- -- -- -- -- -- -- -- -- -- -- -- --
Raw TAF
KSTL 191741Z 1918/2024 25016G26KT P6SM BKN035
  FM200000 29012KT P6SM SCT040 BKN120
  FM200600 30006KT P6SM SKC
  FM202100 02008KT P6SM SCT250


METAR Board
Radar Display
Forecast Discussion
For situational awareness. Not to be used for flight planning purposes.